Portada
METAR-TAF:

METAR-TAF

Aeropuertos :

Aeropuerto de Homer

Homer, Alaska, Estados Unidos

latitud: 59-39N, longitud: 151-29W, altitud: 26 m

Observación

El informe se hizo hace 1 hora y 1 minutos, a las 17:53 UTC
Viento calma
Temperatura 13°C
Humedad 88%
Presión 1009 hPa
Visibilidad: 16.1 km
Cielo cubierto a una altura de 9500 ft

METAR: PAHO 151753Z 00000KT 10SM OVC095 13/11 A2980 RMK AO2 SLP093 T01330111 10133 20106 51009

Hora: 10:54 (18:54 UTC)

Pronóstico

El informe se hizo hace 1 hora y 34 minutos, a las 17:20 UTC
Pronóstico válido del 15 a las 18 UTC al 16 a las 18 UTC
Viento 5 kt con dirección variable
Visibilidad: 10 km
Nubes dispersas a una altura de 5000 ft
Cielo nuboso a una altura de 8000 ft
lluvia ligera

TAF: PAHO 151720Z 1518/1618 VRB05KT P6SM -RA SCT050 BKN080

Observaciones y pronósticos meteorológicos de más de 4000 aeropuertos (mensajes METAR y TAF).

Los puntos amarillos y rojos representan las estaciones disponibles.

Ponga el ratón en el punto deseado para ver el nombre de la estación.

Haga clic para ver las observaciones y los pronósticos meteorológicos.

Para cambiar el mapa : haga clic en los botones verdes con una cruz de color negro para hacer un zoom, en el botón verde con un guión para alejar o en las flechas verdes para mapas adyacentes.


METAR-TAF: